createdAt,value
2023-05-24T00:00:15.974Z,7.93
2023-05-24T00:03:02.954Z,8.18
2023-05-24T00:05:48.421Z,10.93
2023-05-24T00:08:34.736Z,8.50
2023-05-24T00:11:20.351Z,11.77
2023-05-24T00:14:05.644Z,7.70
2023-05-24T00:16:51.352Z,7.60
2023-05-24T00:19:38.401Z,7.38
2023-05-24T00:22:25.178Z,9.02
2023-05-24T00:25:10.728Z,9.15
2023-05-24T00:27:56.506Z,9.77
2023-05-24T00:30:42.114Z,11.80
2023-05-24T00:33:28.899Z,9.20
2023-05-24T00:36:14.344Z,7.80
2023-05-24T00:39:00.211Z,10.10
2023-05-24T00:41:45.684Z,8.85
2023-05-24T00:44:31.508Z,9.13
2023-05-24T00:47:17.214Z,9.85
2023-05-24T00:50:03.538Z,8.63
2023-05-24T00:52:51.502Z,9.48
2023-05-24T00:55:37.509Z,10.15
2023-05-24T00:58:27.157Z,11.32
2023-05-24T01:01:13.320Z,9.90
2023-05-24T01:03:59.666Z,9.45
2023-05-24T01:07:03.335Z,10.02
2023-05-24T01:10:15.212Z,7.88
2023-05-24T01:13:29.709Z,9.93
2023-05-24T01:16:20.040Z,9.88
2023-05-24T01:19:26.023Z,11.48
2023-05-24T01:22:20.026Z,9.88
2023-05-24T01:25:41.899Z,9.90
2023-05-24T01:28:27.980Z,10.68
2023-05-24T01:31:14.790Z,8.05
2023-05-24T01:34:00.145Z,11.48
2023-05-24T01:36:45.740Z,9.20
2023-05-24T01:39:31.324Z,10.75
2023-05-24T01:42:27.567Z,12.13
2023-05-24T01:45:28.746Z,10.43
2023-05-24T01:48:24.836Z,12.98
2023-05-24T01:51:12.098Z,12.60
2023-05-24T01:53:59.197Z,13.30
2023-05-24T01:56:45.623Z,11.50
2023-05-24T01:59:33.472Z,11.77
2023-05-24T02:02:19.106Z,12.70
2023-05-24T02:05:05.079Z,11.48
2023-05-24T02:07:50.982Z,11.63
2023-05-24T02:10:39.383Z,14.38
2023-05-24T02:13:25.012Z,15.45
2023-05-24T02:16:10.826Z,15.57
2023-05-24T02:18:57.634Z,12.75
2023-05-24T02:21:43.192Z,16.20
2023-05-24T02:24:28.430Z,11.98
2023-05-24T02:27:13.837Z,13.48
2023-05-24T02:29:59.052Z,14.75
2023-05-24T02:32:44.720Z,14.65
2023-05-24T02:35:30.210Z,12.40
2023-05-24T02:38:15.513Z,13.32
2023-05-24T02:41:01.182Z,12.98
2023-05-24T02:43:47.850Z,17.27
2023-05-24T02:46:33.710Z,13.30
2023-05-24T02:49:19.360Z,12.07
2023-05-24T02:52:05.316Z,13.82
2023-05-24T02:54:50.912Z,13.85
2023-05-24T02:57:37.891Z,13.18
2023-05-24T03:00:23.646Z,11.75
2023-05-24T03:03:09.304Z,13.80
2023-05-24T03:05:54.817Z,14.55
2023-05-24T03:08:41.527Z,14.98
2023-05-24T03:11:27.312Z,16.20
2023-05-24T03:14:12.503Z,13.48
2023-05-24T03:16:57.652Z,14.80
2023-05-24T03:19:43.224Z,16.23
2023-05-24T03:22:28.739Z,12.02
2023-05-24T03:25:14.615Z,14.38
2023-05-24T03:28:01.155Z,15.93
2023-05-24T03:30:46.809Z,14.32
2023-05-24T03:33:32.237Z,17.77
2023-05-24T03:36:18.197Z,17.63
2023-05-24T03:39:04.536Z,17.38
2023-05-24T03:41:49.729Z,14.27
2023-05-24T03:44:35.404Z,15.65
2023-05-24T03:47:21.512Z,17.15
2023-05-24T03:50:07.705Z,15.80
2023-05-24T03:52:53.302Z,13.50
2023-05-24T03:55:38.987Z,18.92
2023-05-24T03:58:24.320Z,15.90
2023-05-24T04:01:12.683Z,15.63
2023-05-24T04:04:04.456Z,14.98
2023-05-24T04:06:49.834Z,16.40
2023-05-24T04:09:35.541Z,16.42
2023-05-24T04:12:20.840Z,18.13
2023-05-24T04:15:07.420Z,17.20
2023-05-24T04:17:55.852Z,15.40
2023-05-24T04:20:41.849Z,16.95
2023-05-24T04:23:27.451Z,16.98
2023-05-24T04:26:14.219Z,16.48
2023-05-24T04:29:00.027Z,17.95
2023-05-24T04:31:45.343Z,15.10
2023-05-24T04:34:33.858Z,16.67
2023-05-24T04:37:19.361Z,22.23
2023-05-24T04:40:05.741Z,16.90
2023-05-24T04:42:51.180Z,19.10
2023-05-24T04:45:36.860Z,19.02
2023-05-24T04:48:24.368Z,15.80
2023-05-24T04:51:09.643Z,16.60
2023-05-24T04:53:55.127Z,15.05
2023-05-24T04:56:40.672Z,18.42
2023-05-24T04:59:26.349Z,20.90
2023-05-24T05:02:12.279Z,15.10
2023-05-24T05:04:57.545Z,17.27
2023-05-24T05:07:43.134Z,17.90
2023-05-24T05:10:28.593Z,13.85
2023-05-24T05:13:13.701Z,14.75
2023-05-24T05:15:59.259Z,15.57
2023-05-24T05:18:44.678Z,16.38
2023-05-24T05:21:33.055Z,15.60
2023-05-24T05:24:19.067Z,17.83
2023-05-24T05:27:04.409Z,14.05
2023-05-24T05:29:49.972Z,18.48
2023-05-24T05:32:36.390Z,17.90
2023-05-24T05:35:22.362Z,17.05
2023-05-24T05:38:07.969Z,19.30
2023-05-24T05:40:53.190Z,17.77
2023-05-24T05:43:39.104Z,14.82
2023-05-24T05:46:24.294Z,15.15
2023-05-24T05:49:10.320Z,15.50
2023-05-24T05:51:55.846Z,16.55
2023-05-24T05:54:41.365Z,15.70
2023-05-24T05:57:27.397Z,16.27
2023-05-24T06:00:13.566Z,15.32
2023-05-24T06:02:59.068Z,14.10
2023-05-24T06:05:44.807Z,17.67
2023-05-24T06:08:34.959Z,17.27
2023-05-24T06:11:20.236Z,20.40
2023-05-24T06:14:05.932Z,15.65
2023-05-24T06:16:52.380Z,17.50
2023-05-24T06:19:38.531Z,13.80
2023-05-24T06:22:24.261Z,15.80
2023-05-24T06:25:10.000Z,13.63
2023-05-24T06:27:55.374Z,14.90
2023-05-24T06:30:40.767Z,14.70
2023-05-24T06:33:27.547Z,15.57
2023-05-24T06:36:13.215Z,13.70
2023-05-24T06:38:58.766Z,12.90
2023-05-24T06:41:44.749Z,12.88
2023-05-24T06:44:34.399Z,17.27
2023-05-24T06:47:21.457Z,14.13
2023-05-24T06:50:08.483Z,14.65
2023-05-24T06:52:55.708Z,15.82
2023-05-24T06:55:41.099Z,13.95
2023-05-24T06:58:27.322Z,10.15
2023-05-24T07:01:13.045Z,9.75
2023-05-24T07:03:59.240Z,12.13
2023-05-24T07:06:45.969Z,11.27
2023-05-24T07:09:31.545Z,9.75
2023-05-24T07:12:18.155Z,9.38
2023-05-24T07:15:04.933Z,10.45
2023-05-24T07:17:50.580Z,10.75
2023-05-24T07:20:36.135Z,8.43
2023-05-24T07:23:21.853Z,7.78
2023-05-24T07:26:09.096Z,9.82
2023-05-24T07:28:54.317Z,10.00
2023-05-24T07:31:40.127Z,9.02
2023-05-24T07:34:27.668Z,7.00
2023-05-24T07:37:13.386Z,7.28
2023-05-24T07:39:58.937Z,6.15
2023-05-24T07:42:44.861Z,6.50
2023-05-24T07:45:31.212Z,6.30
2023-05-24T07:48:16.686Z,6.20
2023-05-24T07:51:02.416Z,5.45
2023-05-24T07:53:47.900Z,6.63
2023-05-24T07:56:33.708Z,5.78
2023-05-24T07:59:19.229Z,11.05
2023-05-24T08:02:05.756Z,6.28
2023-05-24T08:04:51.776Z,5.20
2023-05-24T08:07:37.267Z,10.43
2023-05-24T08:10:23.415Z,9.30
2023-05-24T08:13:09.087Z,7.32
2023-05-24T08:15:54.754Z,8.32
2023-05-24T08:18:40.178Z,6.60
2023-05-24T08:21:25.384Z,8.00
2023-05-24T08:24:10.570Z,6.85
2023-05-24T08:26:56.381Z,8.63
2023-05-24T08:29:41.657Z,8.50
2023-05-24T08:32:27.557Z,7.15
2023-05-24T08:35:20.845Z,9.68
2023-05-24T08:40:53.481Z,8.27
2023-05-24T08:43:39.255Z,11.63
2023-05-24T08:46:25.942Z,9.05
2023-05-24T08:49:12.829Z,12.43
2023-05-24T08:51:58.010Z,11.88
2023-05-24T08:54:44.144Z,9.82
2023-05-24T08:57:31.296Z,11.50
2023-05-24T09:00:17.096Z,11.35
2023-05-24T09:03:05.056Z,9.98
2023-05-24T09:05:50.720Z,13.82
2023-05-24T09:08:37.456Z,14.25
2023-05-24T09:11:24.566Z,12.18
2023-05-24T09:14:10.763Z,10.52
2023-05-24T09:16:56.975Z,11.57
2023-05-24T09:19:46.180Z,14.20
2023-05-24T09:22:33.633Z,12.13
2023-05-24T09:25:22.954Z,11.32
2023-05-24T09:28:08.583Z,13.18
2023-05-24T09:31:05.416Z,12.25
2023-05-24T09:33:52.965Z,11.23
2023-05-24T09:36:42.966Z,15.10
2023-05-24T09:39:28.487Z,11.55
2023-05-24T09:42:26.537Z,11.73
2023-05-24T09:45:12.782Z,11.93
2023-05-24T09:47:58.322Z,22.85
2023-05-24T09:51:05.979Z,13.70
2023-05-24T09:53:52.845Z,11.18
2023-05-24T09:56:40.271Z,9.85
2023-05-24T09:59:26.029Z,10.10
2023-05-24T10:02:12.550Z,9.57
2023-05-24T10:05:00.894Z,10.93
2023-05-24T10:07:47.134Z,10.63
2023-05-24T10:10:33.947Z,9.52
2023-05-24T10:13:22.678Z,9.90
2023-05-24T10:16:08.672Z,9.95
2023-05-24T10:18:54.554Z,11.35
2023-05-24T10:21:42.315Z,8.80
2023-05-24T10:24:50.690Z,9.95
2023-05-24T10:27:38.305Z,10.05
2023-05-24T10:30:44.447Z,11.75
2023-05-24T10:33:32.184Z,11.35
2023-05-24T10:36:18.823Z,9.05
2023-05-24T10:39:05.103Z,11.45
2023-05-24T10:41:51.044Z,9.80
2023-05-24T10:44:37.337Z,12.95
2023-05-24T10:47:28.609Z,11.32
2023-05-24T10:50:22.009Z,9.52
2023-05-24T10:53:22.356Z,11.63
2023-05-24T10:56:09.764Z,11.93
2023-05-24T10:58:55.364Z,14.90
2023-05-24T11:01:41.213Z,13.68
2023-05-24T11:04:29.512Z,13.27
2023-05-24T11:07:16.155Z,14.50
2023-05-24T11:10:07.178Z,12.20
2023-05-24T11:13:00.355Z,15.30
2023-05-24T11:15:51.526Z,15.90
2023-05-24T11:18:40.188Z,13.52
2023-05-24T11:21:27.499Z,17.20
2023-05-24T11:24:13.323Z,14.45
2023-05-24T11:27:02.478Z,12.00
2023-05-24T11:29:48.869Z,15.82
2023-05-24T11:32:34.158Z,17.35
2023-05-24T11:35:20.183Z,12.60
2023-05-24T11:38:13.901Z,13.15
2023-05-24T11:40:59.425Z,14.18
2023-05-24T11:43:45.095Z,15.88
2023-05-24T11:46:31.643Z,15.98
2023-05-24T11:49:18.006Z,16.05
2023-05-24T11:52:04.020Z,13.75
2023-05-24T11:54:50.590Z,14.52
2023-05-24T11:57:44.225Z,13.90
2023-05-24T12:00:29.442Z,13.13
2023-05-24T12:03:15.453Z,13.18
2023-05-24T12:06:02.024Z,13.07
2023-05-24T12:08:48.306Z,13.15
2023-05-24T12:11:34.375Z,12.98
2023-05-24T12:14:28.835Z,13.13
2023-05-24T12:17:16.950Z,14.10
2023-05-24T12:20:03.430Z,12.60
2023-05-24T12:22:52.004Z,13.32
2023-05-24T12:25:37.710Z,13.52
2023-05-24T12:28:24.759Z,12.95
2023-05-24T12:31:10.659Z,11.88
2023-05-24T12:33:56.527Z,12.30
2023-05-24T12:36:43.213Z,11.48
2023-05-24T12:39:32.042Z,11.38
2023-05-24T12:42:19.610Z,10.65
2023-05-24T12:45:05.555Z,12.65
2023-05-24T12:47:52.279Z,10.05
2023-05-24T12:50:38.036Z,12.75
2023-05-24T12:53:24.564Z,10.63
2023-05-24T12:56:10.362Z,11.68
2023-05-24T12:58:55.873Z,14.20
2023-05-24T13:01:41.652Z,11.75
2023-05-24T13:04:28.117Z,12.85
2023-05-24T13:07:13.512Z,15.45
2023-05-24T13:10:00.326Z,11.07
2023-05-24T13:12:47.123Z,11.18
2023-05-24T13:15:32.351Z,13.98
2023-05-24T13:18:18.126Z,12.52
2023-05-24T13:21:05.452Z,12.45
2023-05-24T13:23:52.060Z,13.65
2023-05-24T13:26:38.422Z,13.23
2023-05-24T13:29:34.137Z,12.82
2023-05-24T13:32:22.714Z,11.40
2023-05-24T13:35:08.672Z,10.85
2023-05-24T13:37:55.807Z,13.85
2023-05-24T13:40:42.354Z,12.15
2023-05-24T13:43:28.069Z,9.43
2023-05-24T13:46:14.605Z,11.23
2023-05-24T13:49:00.143Z,11.02
2023-05-24T13:51:47.054Z,16.65
2023-05-24T13:54:32.775Z,11.77
2023-05-24T13:57:18.160Z,11.93
2023-05-24T14:00:04.363Z,9.65
2023-05-24T14:02:50.899Z,11.48
2023-05-24T14:05:36.859Z,10.15
2023-05-24T14:08:22.034Z,12.98
2023-05-24T14:11:07.639Z,10.45
2023-05-24T14:16:41.978Z,12.48
2023-05-24T14:19:27.170Z,10.18
2023-05-24T14:22:12.725Z,9.82
2023-05-24T14:24:58.118Z,10.77
2023-05-24T14:27:44.207Z,8.23
2023-05-24T14:30:31.941Z,10.85
2023-05-24T14:33:17.210Z,8.60
2023-05-24T14:36:02.654Z,9.15
2023-05-24T14:38:48.001Z,8.45
2023-05-24T14:41:34.481Z,10.90
2023-05-24T14:44:20.033Z,7.32
2023-05-24T14:47:06.045Z,10.02
2023-05-24T14:49:51.524Z,10.45
2023-05-24T14:52:37.027Z,15.50
2023-05-24T14:55:22.840Z,13.07
2023-05-24T14:58:14.727Z,11.98
2023-05-24T15:01:00.400Z,13.73
2023-05-24T15:03:46.036Z,20.25
2023-05-24T15:06:34.935Z,11.45
2023-05-24T15:09:20.386Z,11.88
2023-05-24T15:12:07.701Z,13.10
2023-05-24T15:14:53.250Z,14.55
2023-05-24T15:17:38.673Z,12.45
2023-05-24T15:23:11.325Z,16.48
2023-05-24T15:25:56.668Z,11.88
2023-05-24T15:28:42.046Z,13.13
2023-05-24T15:31:27.408Z,12.88
2023-05-24T15:34:12.900Z,12.65
2023-05-24T15:36:58.363Z,10.73
2023-05-24T15:39:43.719Z,11.05
2023-05-24T15:42:30.577Z,11.70
2023-05-24T15:45:16.381Z,15.10
2023-05-24T15:48:04.711Z,12.15
2023-05-24T15:51:06.476Z,18.30
2023-05-24T15:53:56.133Z,14.57
2023-05-24T15:56:41.458Z,16.42
2023-05-24T15:59:27.658Z,14.38
2023-05-24T16:02:13.339Z,11.57
2023-05-24T16:04:59.083Z,13.10
2023-05-24T16:07:44.947Z,13.60
2023-05-24T16:10:30.205Z,12.98
2023-05-24T16:13:15.940Z,11.20
2023-05-24T16:16:01.341Z,12.93
2023-05-24T16:18:46.639Z,10.93
2023-05-24T16:21:33.086Z,13.95
2023-05-24T16:24:18.841Z,14.77
2023-05-24T16:27:04.561Z,13.75
2023-05-24T16:29:49.707Z,13.50
2023-05-24T16:32:35.405Z,18.80
2023-05-24T16:35:21.065Z,14.88
2023-05-24T16:38:06.513Z,14.50
2023-05-24T16:40:52.861Z,14.98
2023-05-24T16:43:38.433Z,13.35
2023-05-24T16:46:24.135Z,16.52
2023-05-24T16:49:09.629Z,15.93
2023-05-24T16:51:54.865Z,15.63
2023-05-24T16:54:40.628Z,14.80
2023-05-24T16:57:26.187Z,15.30
2023-05-24T17:00:12.069Z,15.70
2023-05-24T17:02:59.512Z,15.68
2023-05-24T17:05:45.148Z,16.10
2023-05-24T17:08:39.999Z,15.63
2023-05-24T17:11:25.675Z,13.95
2023-05-24T17:14:11.076Z,13.27
2023-05-24T17:16:56.564Z,14.43
2023-05-24T17:19:42.275Z,16.75
2023-05-24T17:22:27.493Z,16.33
2023-05-24T17:25:12.933Z,14.27
2023-05-24T17:27:58.510Z,17.30
2023-05-24T17:30:44.014Z,16.13
2023-05-24T17:33:30.950Z,15.13
2023-05-24T17:36:16.377Z,14.07
2023-05-24T17:39:01.639Z,16.60
2023-05-24T17:41:47.141Z,17.05
2023-05-24T17:44:32.335Z,12.57
2023-05-24T17:47:18.513Z,14.95
2023-05-24T17:50:04.324Z,15.75
2023-05-24T17:52:49.905Z,15.13
2023-05-24T17:55:35.768Z,16.10
2023-05-24T17:58:21.323Z,13.60
2023-05-24T18:01:08.668Z,13.98
2023-05-24T18:03:54.475Z,16.52
2023-05-24T18:06:39.862Z,14.60
2023-05-24T18:09:25.461Z,15.23
2023-05-24T18:12:11.719Z,14.40
2023-05-24T18:14:57.741Z,21.90
2023-05-24T18:17:43.672Z,15.70
2023-05-24T18:20:29.174Z,13.07
2023-05-24T18:23:14.756Z,16.35
2023-05-24T18:26:03.303Z,14.73
2023-05-24T18:28:49.224Z,16.83
2023-05-24T18:31:35.004Z,13.85
2023-05-24T18:34:23.344Z,16.20
2023-05-24T18:37:08.752Z,15.45
2023-05-24T18:39:54.271Z,15.40
2023-05-24T18:42:39.382Z,13.18
2023-05-24T18:45:24.925Z,16.55
2023-05-24T18:48:10.527Z,20.52
2023-05-24T18:50:55.923Z,16.75
2023-05-24T18:53:41.413Z,16.58
2023-05-24T18:56:26.656Z,13.70
2023-05-24T18:59:12.650Z,16.30
2023-05-24T19:01:58.832Z,17.25
2023-05-24T19:04:48.165Z,17.98
2023-05-24T19:07:34.928Z,16.20
2023-05-24T19:10:20.723Z,14.68
2023-05-24T19:13:08.969Z,14.35
2023-05-24T19:15:56.573Z,13.73
2023-05-24T19:18:44.117Z,17.67
2023-05-24T19:21:31.991Z,17.08
2023-05-24T19:24:17.231Z,14.18
2023-05-24T19:27:02.829Z,16.42
2023-05-24T19:29:48.332Z,15.93
2023-05-24T19:32:35.704Z,17.27
2023-05-24T19:35:21.585Z,12.95
2023-05-24T19:38:07.249Z,14.80
2023-05-24T19:40:52.932Z,15.07
2023-05-24T19:43:39.041Z,14.60
2023-05-24T19:46:24.621Z,12.50
2023-05-24T19:49:10.082Z,15.07
2023-05-24T19:51:55.308Z,18.10
2023-05-24T19:54:41.398Z,13.98
2023-05-24T19:57:27.323Z,17.92
2023-05-24T20:00:13.958Z,13.70
2023-05-24T20:02:59.737Z,16.00
2023-05-24T20:05:45.644Z,14.38
2023-05-24T20:08:31.257Z,17.85
2023-05-24T20:11:16.808Z,14.82
2023-05-24T20:14:02.675Z,14.07
2023-05-24T20:16:48.305Z,15.43
2023-05-24T20:19:33.867Z,17.40
2023-05-24T20:22:19.374Z,15.88
2023-05-24T20:25:05.865Z,15.68
2023-05-24T20:27:51.435Z,17.73
2023-05-24T20:30:37.772Z,18.30
2023-05-24T20:33:23.108Z,15.40
2023-05-24T20:36:08.681Z,15.57
2023-05-24T20:38:54.734Z,16.23
2023-05-24T20:41:39.930Z,15.80
2023-05-24T20:44:25.721Z,14.75
2023-05-24T20:47:11.921Z,16.15
2023-05-24T20:49:57.130Z,13.07
2023-05-24T20:52:43.015Z,17.35
2023-05-24T20:55:28.231Z,17.52
2023-05-24T20:58:15.237Z,18.17
2023-05-24T21:01:00.718Z,15.25
2023-05-24T21:03:46.296Z,13.13
2023-05-24T21:06:34.222Z,14.80
2023-05-24T21:09:19.985Z,17.60
2023-05-24T21:12:06.411Z,17.75
2023-05-24T21:14:54.962Z,13.73
2023-05-24T21:17:40.415Z,15.30
2023-05-24T21:20:25.781Z,15.15
2023-05-24T21:23:11.500Z,14.45
2023-05-24T21:25:57.320Z,17.58
2023-05-24T21:28:44.785Z,17.08
2023-05-24T21:31:30.351Z,40.28
2023-05-24T21:34:15.841Z,23.95
2023-05-24T21:37:01.870Z,26.10
2023-05-24T21:39:48.035Z,24.65
2023-05-24T21:42:33.615Z,17.30
2023-05-24T21:45:19.231Z,15.73
2023-05-24T21:48:05.990Z,13.70
2023-05-24T21:50:51.228Z,16.02
2023-05-24T21:53:36.860Z,14.80
2023-05-24T21:56:23.030Z,14.65
2023-05-24T21:59:08.230Z,13.80
2023-05-24T22:01:53.835Z,13.77
2023-05-24T22:04:39.264Z,15.80
2023-05-24T22:07:24.578Z,13.27
2023-05-24T22:10:11.998Z,13.75
2023-05-24T22:12:57.315Z,15.57
2023-05-24T22:15:42.879Z,12.00
2023-05-24T22:18:30.490Z,14.00
2023-05-24T22:21:15.854Z,11.98
2023-05-24T22:24:01.285Z,17.92
2023-05-24T22:26:47.134Z,16.15
2023-05-24T22:29:32.487Z,12.30
2023-05-24T22:32:18.224Z,11.35
2023-05-24T22:35:03.764Z,18.30
2023-05-24T22:37:49.107Z,13.43
2023-05-24T22:40:36.614Z,12.30
2023-05-24T22:43:21.965Z,12.75
2023-05-24T22:46:10.534Z,16.08
2023-05-24T22:48:56.756Z,16.08
2023-05-24T22:51:44.336Z,12.25
2023-05-24T22:54:30.062Z,15.02
2023-05-24T22:57:21.382Z,15.00
2023-05-24T23:00:08.262Z,12.68
2023-05-24T23:02:53.870Z,14.70
2023-05-24T23:05:41.030Z,15.68
2023-05-24T23:08:26.924Z,14.00
2023-05-24T23:11:12.088Z,11.35
2023-05-24T23:13:59.572Z,12.55
2023-05-24T23:16:45.786Z,13.35
2023-05-24T23:19:32.341Z,13.95
2023-05-24T23:22:23.493Z,16.33
2023-05-24T23:25:09.410Z,13.68
2023-05-24T23:27:54.684Z,13.35
2023-05-24T23:30:40.196Z,12.60
2023-05-24T23:33:25.613Z,12.88
2023-05-24T23:36:11.145Z,12.45
2023-05-24T23:38:56.381Z,10.85
2023-05-24T23:41:41.960Z,12.30
2023-05-24T23:44:27.386Z,15.65
2023-05-24T23:47:12.944Z,11.80
2023-05-24T23:49:58.636Z,12.77
2023-05-24T23:52:45.804Z,13.20
2023-05-24T23:55:31.288Z,16.05
2023-05-24T23:58:16.555Z,13.95
